sensor_id;sensor_type;location;lat;lon;timestamp;P1;durP1;ratioP1;P2;durP2;ratioP2
50531;SDS011;36483;37.396;-122.212;2023-06-22T00:02:21;5.40;;;1.38;;
50531;SDS011;36483;37.396;-122.212;2023-06-22T00:04:48;5.10;;;1.58;;
50531;SDS011;36483;37.396;-122.212;2023-06-22T00:07:14;7.53;;;1.88;;
50531;SDS011;36483;37.396;-122.212;2023-06-22T00:09:41;6.53;;;1.50;;
50531;SDS011;36483;37.396;-122.212;2023-06-22T00:12:07;5.30;;;1.50;;
50531;SDS011;36483;37.396;-122.212;2023-06-22T00:14:33;5.20;;;1.60;;
50531;SDS011;36483;37.396;-122.212;2023-06-22T00:17:00;5.15;;;1.85;;
50531;SDS011;36483;37.396;-122.212;2023-06-22T00:19:26;5.75;;;1.50;;
50531;SDS011;36483;37.396;-122.212;2023-06-22T00:21:52;5.68;;;1.75;;
50531;SDS011;36483;37.396;-122.212;2023-06-22T00:24:21;5.97;;;1.38;;
50531;SDS011;36483;37.396;-122.212;2023-06-22T00:26:48;7.75;;;1.77;;
50531;SDS011;36483;37.396;-122.212;2023-06-22T00:29:17;4.88;;;1.50;;
50531;SDS011;36483;37.396;-122.212;2023-06-22T00:31:43;4.80;;;1.65;;
50531;SDS011;36483;37.396;-122.212;2023-06-22T00:34:10;4.65;;;1.58;;
50531;SDS011;36483;37.396;-122.212;2023-06-22T00:36:37;5.32;;;1.63;;
50531;SDS011;36483;37.396;-122.212;2023-06-22T00:39:06;4.18;;;1.40;;
50531;SDS011;36483;37.396;-122.212;2023-06-22T00:41:33;4.60;;;1.50;;
50531;SDS011;36483;37.396;-122.212;2023-06-22T00:43:59;5.50;;;1.77;;
50531;SDS011;36483;37.396;-122.212;2023-06-22T00:46:26;3.10;;;1.38;;
50531;SDS011;36483;37.396;-122.212;2023-06-22T00:48:52;3.70;;;1.40;;
50531;SDS011;36483;37.396;-122.212;2023-06-22T00:51:22;2.67;;;1.30;;
50531;SDS011;36483;37.396;-122.212;2023-06-22T00:53:50;4.65;;;1.58;;
50531;SDS011;36483;37.396;-122.212;2023-06-22T00:56:17;5.68;;;1.40;;
50531;SDS011;36483;37.396;-122.212;2023-06-22T00:58:45;5.53;;;1.70;;
50531;SDS011;36483;37.396;-122.212;2023-06-22T01:01:13;3.47;;;1.20;;
50531;SDS011;36483;37.396;-122.212;2023-06-22T01:03:39;2.58;;;1.08;;
50531;SDS011;36483;37.396;-122.212;2023-06-22T01:06:08;3.55;;;1.40;;
50531;SDS011;36483;37.396;-122.212;2023-06-22T01:08:46;2.70;;;1.15;;
50531;SDS011;36483;37.396;-122.212;2023-06-22T01:11:20;4.93;;;1.35;;
50531;SDS011;36483;37.396;-122.212;2023-06-22T01:13:57;4.88;;;1.42;;
50531;SDS011;36483;37.396;-122.212;2023-06-22T01:16:31;4.82;;;1.50;;
50531;SDS011;36483;37.396;-122.212;2023-06-22T01:19:01;5.03;;;1.48;;
50531;SDS011;36483;37.396;-122.212;2023-06-22T01:21:40;3.90;;;1.40;;
50531;SDS011;36483;37.396;-122.212;2023-06-22T01:24:10;4.45;;;1.60;;
50531;SDS011;36483;37.396;-122.212;2023-06-22T01:29:31;5.25;;;1.50;;
50531;SDS011;36483;37.396;-122.212;2023-06-22T01:31:59;3.88;;;1.75;;
50531;SDS011;36483;37.396;-122.212;2023-06-22T01:34:27;4.57;;;1.75;;
50531;SDS011;36483;37.396;-122.212;2023-06-22T01:36:55;6.13;;;1.80;;
50531;SDS011;36483;37.396;-122.212;2023-06-22T01:39:21;4.65;;;1.70;;
50531;SDS011;36483;37.396;-122.212;2023-06-22T01:41:48;3.85;;;1.60;;
50531;SDS011;36483;37.396;-122.212;2023-06-22T01:44:15;5.05;;;1.50;;
50531;SDS011;36483;37.396;-122.212;2023-06-22T01:46:44;4.53;;;1.52;;
50531;SDS011;36483;37.396;-122.212;2023-06-22T01:49:13;3.08;;;1.30;;
50531;SDS011;36483;37.396;-122.212;2023-06-22T01:51:41;4.28;;;1.63;;
50531;SDS011;36483;37.396;-122.212;2023-06-22T01:54:07;3.28;;;1.40;;
50531;SDS011;36483;37.396;-122.212;2023-06-22T01:56:34;4.28;;;1.50;;
50531;SDS011;36483;37.396;-122.212;2023-06-22T01:59:09;3.15;;;1.40;;
50531;SDS011;36483;37.396;-122.212;2023-06-22T02:02:15;4.15;;;1.30;;
50531;SDS011;36483;37.396;-122.212;2023-06-22T02:04:46;3.70;;;1.30;;
50531;SDS011;36483;37.396;-122.212;2023-06-22T02:07:15;5.78;;;1.60;;
50531;SDS011;36483;37.396;-122.212;2023-06-22T02:09:44;4.20;;;1.48;;
50531;SDS011;36483;37.396;-122.212;2023-06-22T02:12:13;5.43;;;1.40;;
50531;SDS011;36483;37.396;-122.212;2023-06-22T02:14:46;4.95;;;1.50;;
50531;SDS011;36483;37.396;-122.212;2023-06-22T02:17:13;4.32;;;1.40;;
50531;SDS011;36483;37.396;-122.212;2023-06-22T02:19:41;3.67;;;1.42;;
50531;SDS011;36483;37.396;-122.212;2023-06-22T02:22:07;8.10;;;1.92;;
50531;SDS011;36483;37.396;-122.212;2023-06-22T02:24:33;5.45;;;2.03;;
50531;SDS011;36483;37.396;-122.212;2023-06-22T02:27:00;4.47;;;1.67;;
50531;SDS011;36483;37.396;-122.212;2023-06-22T02:29:27;3.97;;;1.67;;
50531;SDS011;36483;37.396;-122.212;2023-06-22T02:31:54;6.82;;;1.67;;
50531;SDS011;36483;37.396;-122.212;2023-06-22T02:34:21;3.60;;;1.48;;
50531;SDS011;36483;37.396;-122.212;2023-06-22T02:36:49;5.57;;;1.77;;
50531;SDS011;36483;37.396;-122.212;2023-06-22T02:39:21;4.88;;;1.50;;
50531;SDS011;36483;37.396;-122.212;2023-06-22T02:41:53;4.03;;;1.48;;
50531;SDS011;36483;37.396;-122.212;2023-06-22T02:44:20;4.70;;;1.73;;
50531;SDS011;36483;37.396;-122.212;2023-06-22T02:46:47;5.10;;;1.83;;
50531;SDS011;36483;37.396;-122.212;2023-06-22T02:49:15;3.38;;;1.42;;
50531;SDS011;36483;37.396;-122.212;2023-06-22T02:51:47;5.30;;;1.95;;
50531;SDS011;36483;37.396;-122.212;2023-06-22T02:54:14;5.88;;;1.45;;
50531;SDS011;36483;37.396;-122.212;2023-06-22T02:56:40;5.00;;;1.80;;
50531;SDS011;36483;37.396;-122.212;2023-06-22T02:59:09;4.63;;;1.95;;
50531;SDS011;36483;37.396;-122.212;2023-06-22T03:01:36;6.13;;;1.80;;
50531;SDS011;36483;37.396;-122.212;2023-06-22T03:04:06;5.20;;;1.77;;
50531;SDS011;36483;37.396;-122.212;2023-06-22T03:06:33;7.45;;;2.00;;
50531;SDS011;36483;37.396;-122.212;2023-06-22T03:09:00;6.13;;;1.75;;
50531;SDS011;36483;37.396;-122.212;2023-06-22T03:11:28;6.35;;;1.75;;
50531;SDS011;36483;37.396;-122.212;2023-06-22T03:13:56;5.38;;;1.70;;
50531;SDS011;36483;37.396;-122.212;2023-06-22T03:16:23;6.47;;;1.90;;
50531;SDS011;36483;37.396;-122.212;2023-06-22T03:18:51;4.88;;;1.73;;
50531;SDS011;36483;37.396;-122.212;2023-06-22T03:21:19;4.78;;;1.77;;
50531;SDS011;36483;37.396;-122.212;2023-06-22T03:23:47;5.15;;;1.80;;
50531;SDS011;36483;37.396;-122.212;2023-06-22T03:26:16;3.03;;;1.45;;
50531;SDS011;36483;37.396;-122.212;2023-06-22T03:28:42;4.85;;;1.60;;
50531;SDS011;36483;37.396;-122.212;2023-06-22T03:31:08;5.07;;;1.70;;
50531;SDS011;36483;37.396;-122.212;2023-06-22T03:33:35;4.35;;;1.80;;
50531;SDS011;36483;37.396;-122.212;2023-06-22T03:36:01;5.38;;;2.40;;
50531;SDS011;36483;37.396;-122.212;2023-06-22T03:38:27;8.35;;;2.08;;
50531;SDS011;36483;37.396;-122.212;2023-06-22T03:40:53;5.53;;;1.60;;
50531;SDS011;36483;37.396;-122.212;2023-06-22T03:43:19;8.95;;;2.05;;
50531;SDS011;36483;37.396;-122.212;2023-06-22T03:45:46;6.10;;;1.73;;
50531;SDS011;36483;37.396;-122.212;2023-06-22T03:48:12;6.32;;;1.88;;
50531;SDS011;36483;37.396;-122.212;2023-06-22T03:50:38;7.22;;;2.10;;
50531;SDS011;36483;37.396;-122.212;2023-06-22T03:53:04;4.47;;;1.52;;
50531;SDS011;36483;37.396;-122.212;2023-06-22T03:55:31;4.82;;;1.80;;
50531;SDS011;36483;37.396;-122.212;2023-06-22T03:57:57;4.30;;;1.73;;
50531;SDS011;36483;37.396;-122.212;2023-06-22T04:00:23;5.43;;;2.00;;
50531;SDS011;36483;37.396;-122.212;2023-06-22T04:02:49;5.22;;;1.80;;
50531;SDS011;36483;37.396;-122.212;2023-06-22T04:05:16;6.18;;;2.20;;
50531;SDS011;36483;37.396;-122.212;2023-06-22T04:07:45;8.02;;;2.13;;
50531;SDS011;36483;37.396;-122.212;2023-06-22T04:10:11;5.57;;;2.15;;
50531;SDS011;36483;37.396;-122.212;2023-06-22T04:12:55;7.75;;;2.20;;
50531;SDS011;36483;37.396;-122.212;2023-06-22T04:15:21;7.20;;;1.98;;
50531;SDS011;36483;37.396;-122.212;2023-06-22T04:17:48;6.40;;;2.00;;
50531;SDS011;36483;37.396;-122.212;2023-06-22T04:20:14;4.97;;;2.17;;
50531;SDS011;36483;37.396;-122.212;2023-06-22T04:22:40;6.85;;;2.20;;
50531;SDS011;36483;37.396;-122.212;2023-06-22T04:25:06;5.90;;;2.00;;
50531;SDS011;36483;37.396;-122.212;2023-06-22T04:27:33;4.28;;;2.05;;
50531;SDS011;36483;37.396;-122.212;2023-06-22T04:30:06;6.60;;;2.10;;
50531;SDS011;36483;37.396;-122.212;2023-06-22T04:32:33;6.45;;;2.28;;
50531;SDS011;36483;37.396;-122.212;2023-06-22T04:35:01;6.13;;;2.30;;
50531;SDS011;36483;37.396;-122.212;2023-06-22T04:37:30;6.50;;;2.05;;
50531;SDS011;36483;37.396;-122.212;2023-06-22T04:39:56;5.28;;;2.10;;
50531;SDS011;36483;37.396;-122.212;2023-06-22T04:42:23;5.57;;;2.45;;
50531;SDS011;36483;37.396;-122.212;2023-06-22T04:44:51;5.30;;;2.15;;
50531;SDS011;36483;37.396;-122.212;2023-06-22T04:47:17;4.97;;;2.10;;
50531;SDS011;36483;37.396;-122.212;2023-06-22T04:49:43;4.32;;;1.83;;
50531;SDS011;36483;37.396;-122.212;2023-06-22T04:52:11;3.83;;;1.90;;
50531;SDS011;36483;37.396;-122.212;2023-06-22T04:54:38;6.28;;;2.03;;
50531;SDS011;36483;37.396;-122.212;2023-06-22T04:57:13;6.93;;;2.35;;
50531;SDS011;36483;37.396;-122.212;2023-06-22T04:59:40;6.03;;;1.90;;
50531;SDS011;36483;37.396;-122.212;2023-06-22T05:02:07;5.88;;;1.90;;
50531;SDS011;36483;37.396;-122.212;2023-06-22T05:04:33;5.55;;;2.20;;
50531;SDS011;36483;37.396;-122.212;2023-06-22T05:07:04;5.32;;;1.70;;
50531;SDS011;36483;37.396;-122.212;2023-06-22T05:09:30;7.25;;;1.98;;
50531;SDS011;36483;37.396;-122.212;2023-06-22T05:11:59;6.50;;;2.10;;
50531;SDS011;36483;37.396;-122.212;2023-06-22T05:14:27;5.50;;;1.90;;
50531;SDS011;36483;37.396;-122.212;2023-06-22T05:16:54;6.28;;;1.98;;
50531;SDS011;36483;37.396;-122.212;2023-06-22T05:19:24;5.80;;;2.10;;
50531;SDS011;36483;37.396;-122.212;2023-06-22T05:21:56;5.78;;;2.20;;
50531;SDS011;36483;37.396;-122.212;2023-06-22T05:24:22;7.47;;;1.95;;
50531;SDS011;36483;37.396;-122.212;2023-06-22T05:26:48;5.35;;;2.00;;
50531;SDS011;36483;37.396;-122.212;2023-06-22T05:29:14;7.10;;;1.95;;
50531;SDS011;36483;37.396;-122.212;2023-06-22T05:31:41;6.40;;;1.70;;
50531;SDS011;36483;37.396;-122.212;2023-06-22T05:34:07;6.00;;;1.88;;
50531;SDS011;36483;37.396;-122.212;2023-06-22T05:36:33;5.78;;;2.05;;
50531;SDS011;36483;37.396;-122.212;2023-06-22T05:38:59;5.88;;;1.92;;
50531;SDS011;36483;37.396;-122.212;2023-06-22T05:41:38;6.88;;;2.13;;
50531;SDS011;36483;37.396;-122.212;2023-06-22T05:44:04;8.20;;;2.00;;
50531;SDS011;36483;37.396;-122.212;2023-06-22T05:46:30;4.10;;;1.85;;
50531;SDS011;36483;37.396;-122.212;2023-06-22T05:48:56;5.35;;;1.90;;
50531;SDS011;36483;37.396;-122.212;2023-06-22T05:51:22;7.30;;;2.33;;
50531;SDS011;36483;37.396;-122.212;2023-06-22T05:53:48;4.75;;;2.00;;
50531;SDS011;36483;37.396;-122.212;2023-06-22T05:56:15;6.15;;;2.05;;
50531;SDS011;36483;37.396;-122.212;2023-06-22T05:58:41;5.68;;;2.17;;
50531;SDS011;36483;37.396;-122.212;2023-06-22T06:01:08;8.65;;;2.40;;
50531;SDS011;36483;37.396;-122.212;2023-06-22T06:03:34;6.10;;;2.45;;
50531;SDS011;36483;37.396;-122.212;2023-06-22T06:06:06;5.68;;;1.75;;
50531;SDS011;36483;37.396;-122.212;2023-06-22T06:08:33;4.40;;;1.92;;
50531;SDS011;36483;37.396;-122.212;2023-06-22T06:10:59;5.40;;;2.17;;
50531;SDS011;36483;37.396;-122.212;2023-06-22T06:13:25;5.63;;;1.85;;
50531;SDS011;36483;37.396;-122.212;2023-06-22T06:15:51;3.95;;;1.90;;
50531;SDS011;36483;37.396;-122.212;2023-06-22T06:18:20;5.50;;;2.05;;
50531;SDS011;36483;37.396;-122.212;2023-06-22T06:20:46;5.03;;;1.90;;
50531;SDS011;36483;37.396;-122.212;2023-06-22T06:23:13;3.40;;;1.67;;
50531;SDS011;36483;37.396;-122.212;2023-06-22T06:25:39;5.97;;;1.60;;
50531;SDS011;36483;37.396;-122.212;2023-06-22T06:28:05;3.60;;;1.60;;
50531;SDS011;36483;37.396;-122.212;2023-06-22T06:30:31;6.50;;;1.90;;
50531;SDS011;36483;37.396;-122.212;2023-06-22T06:32:57;3.45;;;1.73;;
50531;SDS011;36483;37.396;-122.212;2023-06-22T06:35:23;5.18;;;1.77;;
50531;SDS011;36483;37.396;-122.212;2023-06-22T06:37:50;4.50;;;1.83;;
50531;SDS011;36483;37.396;-122.212;2023-06-22T06:40:17;5.72;;;2.05;;
50531;SDS011;36483;37.396;-122.212;2023-06-22T06:42:44;4.05;;;1.70;;
50531;SDS011;36483;37.396;-122.212;2023-06-22T06:45:12;3.90;;;1.80;;
50531;SDS011;36483;37.396;-122.212;2023-06-22T06:47:40;4.22;;;1.95;;
50531;SDS011;36483;37.396;-122.212;2023-06-22T06:50:07;3.95;;;1.77;;
50531;SDS011;36483;37.396;-122.212;2023-06-22T06:52:34;4.20;;;2.10;;
50531;SDS011;36483;37.396;-122.212;2023-06-22T06:55:00;4.90;;;1.75;;
50531;SDS011;36483;37.396;-122.212;2023-06-22T06:57:26;5.32;;;1.80;;
50531;SDS011;36483;37.396;-122.212;2023-06-22T06:59:57;3.85;;;1.90;;
50531;SDS011;36483;37.396;-122.212;2023-06-22T07:02:23;4.07;;;1.73;;
50531;SDS011;36483;37.396;-122.212;2023-06-22T07:04:53;3.35;;;1.75;;
50531;SDS011;36483;37.396;-122.212;2023-06-22T07:07:20;2.50;;;1.50;;
50531;SDS011;36483;37.396;-122.212;2023-06-22T07:09:47;8.10;;;2.10;;
50531;SDS011;36483;37.396;-122.212;2023-06-22T07:12:13;6.35;;;2.05;;
50531;SDS011;36483;37.396;-122.212;2023-06-22T07:14:39;7.05;;;1.73;;
50531;SDS011;36483;37.396;-122.212;2023-06-22T07:17:05;3.42;;;1.80;;
50531;SDS011;36483;37.396;-122.212;2023-06-22T07:19:32;4.13;;;2.10;;
50531;SDS011;36483;37.396;-122.212;2023-06-22T07:21:58;4.32;;;1.65;;
50531;SDS011;36483;37.396;-122.212;2023-06-22T07:24:24;2.95;;;1.73;;
50531;SDS011;36483;37.396;-122.212;2023-06-22T07:26:50;2.92;;;1.70;;
50531;SDS011;36483;37.396;-122.212;2023-06-22T07:29:17;4.63;;;1.55;;
50531;SDS011;36483;37.396;-122.212;2023-06-22T07:31:44;5.03;;;1.77;;
50531;SDS011;36483;37.396;-122.212;2023-06-22T07:34:11;4.55;;;1.80;;
50531;SDS011;36483;37.396;-122.212;2023-06-22T07:36:37;4.45;;;1.90;;
50531;SDS011;36483;37.396;-122.212;2023-06-22T07:39:03;4.07;;;1.60;;
50531;SDS011;36483;37.396;-122.212;2023-06-22T07:41:30;3.60;;;1.80;;
50531;SDS011;36483;37.396;-122.212;2023-06-22T07:43:56;3.85;;;1.80;;
50531;SDS011;36483;37.396;-122.212;2023-06-22T07:46:23;4.28;;;2.08;;
50531;SDS011;36483;37.396;-122.212;2023-06-22T07:48:49;5.32;;;1.98;;
50531;SDS011;36483;37.396;-122.212;2023-06-22T07:51:15;5.75;;;1.70;;
50531;SDS011;36483;37.396;-122.212;2023-06-22T07:53:42;5.90;;;2.00;;
50531;SDS011;36483;37.396;-122.212;2023-06-22T07:56:12;3.50;;;1.95;;
50531;SDS011;36483;37.396;-122.212;2023-06-22T07:58:39;3.90;;;2.00;;
50531;SDS011;36483;37.396;-122.212;2023-06-22T08:01:05;3.60;;;1.65;;
50531;SDS011;36483;37.396;-122.212;2023-06-22T08:03:31;2.60;;;1.80;;
50531;SDS011;36483;37.396;-122.212;2023-06-22T08:05:57;3.10;;;1.60;;
50531;SDS011;36483;37.396;-122.212;2023-06-22T08:08:24;3.50;;;1.75;;
50531;SDS011;36483;37.396;-122.212;2023-06-22T08:10:50;2.95;;;1.58;;
50531;SDS011;36483;37.396;-122.212;2023-06-22T08:13:16;2.92;;;1.80;;
50531;SDS011;36483;37.396;-122.212;2023-06-22T08:15:42;4.35;;;1.70;;
50531;SDS011;36483;37.396;-122.212;2023-06-22T08:18:08;5.97;;;1.85;;
50531;SDS011;36483;37.396;-122.212;2023-06-22T08:20:34;3.78;;;1.60;;
50531;SDS011;36483;37.396;-122.212;2023-06-22T08:23:01;3.92;;;1.98;;
50531;SDS011;36483;37.396;-122.212;2023-06-22T08:25:34;3.00;;;1.55;;
50531;SDS011;36483;37.396;-122.212;2023-06-22T08:28:01;4.20;;;1.80;;
50531;SDS011;36483;37.396;-122.212;2023-06-22T08:30:28;5.78;;;2.10;;
50531;SDS011;36483;37.396;-122.212;2023-06-22T08:32:54;3.65;;;1.80;;
50531;SDS011;36483;37.396;-122.212;2023-06-22T08:35:21;2.65;;;1.67;;
50531;SDS011;36483;37.396;-122.212;2023-06-22T08:37:48;6.13;;;2.08;;
50531;SDS011;36483;37.396;-122.212;2023-06-22T08:40:23;4.28;;;1.85;;
50531;SDS011;36483;37.396;-122.212;2023-06-22T08:42:49;4.00;;;1.85;;
50531;SDS011;36483;37.396;-122.212;2023-06-22T08:45:15;3.25;;;1.75;;
50531;SDS011;36483;37.396;-122.212;2023-06-22T08:47:42;3.25;;;1.80;;
50531;SDS011;36483;37.396;-122.212;2023-06-22T08:50:08;4.22;;;1.90;;
50531;SDS011;36483;37.396;-122.212;2023-06-22T08:52:35;3.30;;;1.63;;
50531;SDS011;36483;37.396;-122.212;2023-06-22T08:55:02;3.63;;;1.80;;
50531;SDS011;36483;37.396;-122.212;2023-06-22T08:57:29;4.32;;;1.80;;
50531;SDS011;36483;37.396;-122.212;2023-06-22T08:59:55;4.05;;;1.80;;
50531;SDS011;36483;37.396;-122.212;2023-06-22T09:02:25;2.25;;;1.40;;
50531;SDS011;36483;37.396;-122.212;2023-06-22T09:04:56;4.43;;;1.80;;
50531;SDS011;36483;37.396;-122.212;2023-06-22T09:07:23;5.80;;;1.92;;
50531;SDS011;36483;37.396;-122.212;2023-06-22T09:09:50;3.65;;;1.80;;
50531;SDS011;36483;37.396;-122.212;2023-06-22T09:12:17;2.78;;;1.88;;
50531;SDS011;36483;37.396;-122.212;2023-06-22T09:14:51;4.97;;;1.80;;
50531;SDS011;36483;37.396;-122.212;2023-06-22T09:17:17;4.18;;;1.73;;
50531;SDS011;36483;37.396;-122.212;2023-06-22T09:19:43;3.22;;;1.60;;
50531;SDS011;36483;37.396;-122.212;2023-06-22T09:22:09;2.60;;;1.63;;
50531;SDS011;36483;37.396;-122.212;2023-06-22T09:24:35;2.92;;;1.60;;
50531;SDS011;36483;37.396;-122.212;2023-06-22T09:27:02;2.97;;;1.58;;
50531;SDS011;36483;37.396;-122.212;2023-06-22T09:29:28;2.72;;;1.60;;
50531;SDS011;36483;37.396;-122.212;2023-06-22T09:31:54;4.53;;;1.73;;
50531;SDS011;36483;37.396;-122.212;2023-06-22T09:34:21;2.90;;;1.65;;
50531;SDS011;36483;37.396;-122.212;2023-06-22T09:36:47;2.75;;;1.73;;
50531;SDS011;36483;37.396;-122.212;2023-06-22T09:39:13;2.90;;;1.50;;
50531;SDS011;36483;37.396;-122.212;2023-06-22T09:41:40;3.40;;;1.83;;
50531;SDS011;36483;37.396;-122.212;2023-06-22T09:44:06;4.63;;;1.60;;
50531;SDS011;36483;37.396;-122.212;2023-06-22T09:46:32;3.08;;;1.60;;
50531;SDS011;36483;37.396;-122.212;2023-06-22T09:48:58;4.03;;;1.73;;
50531;SDS011;36483;37.396;-122.212;2023-06-22T09:51:24;4.38;;;1.52;;
50531;SDS011;36483;37.396;-122.212;2023-06-22T09:53:51;2.58;;;1.52;;
50531;SDS011;36483;37.396;-122.212;2023-06-22T09:56:19;3.00;;;1.70;;
50531;SDS011;36483;37.396;-122.212;2023-06-22T09:58:45;4.18;;;1.83;;
50531;SDS011;36483;37.396;-122.212;2023-06-22T10:01:12;3.30;;;1.60;;
50531;SDS011;36483;37.396;-122.212;2023-06-22T10:03:41;4.15;;;1.58;;
50531;SDS011;36483;37.396;-122.212;2023-06-22T10:06:08;2.90;;;1.60;;
50531;SDS011;36483;37.396;-122.212;2023-06-22T10:08:37;3.15;;;1.75;;
50531;SDS011;36483;37.396;-122.212;2023-06-22T10:11:04;4.13;;;1.50;;
50531;SDS011;36483;37.396;-122.212;2023-06-22T10:13:30;5.45;;;1.70;;
50531;SDS011;36483;37.396;-122.212;2023-06-22T10:15:57;3.05;;;1.90;;
50531;SDS011;36483;37.396;-122.212;2023-06-22T10:18:23;2.90;;;1.58;;
50531;SDS011;36483;37.396;-122.212;2023-06-22T10:20:50;3.65;;;1.50;;
50531;SDS011;36483;37.396;-122.212;2023-06-22T10:23:17;2.50;;;1.58;;
50531;SDS011;36483;37.396;-122.212;2023-06-22T10:25:43;2.78;;;1.60;;
50531;SDS011;36483;37.396;-122.212;2023-06-22T10:28:09;3.22;;;1.52;;
50531;SDS011;36483;37.396;-122.212;2023-06-22T10:30:35;2.50;;;1.48;;
50531;SDS011;36483;37.396;-122.212;2023-06-22T10:33:02;3.45;;;1.48;;
50531;SDS011;36483;37.396;-122.212;2023-06-22T10:35:28;5.63;;;1.70;;
50531;SDS011;36483;37.396;-122.212;2023-06-22T10:37:54;3.83;;;1.58;;
50531;SDS011;36483;37.396;-122.212;2023-06-22T10:40:21;2.88;;;1.30;;
50531;SDS011;36483;37.396;-122.212;2023-06-22T10:42:47;3.50;;;1.15;;
50531;SDS011;36483;37.396;-122.212;2023-06-22T10:45:15;2.50;;;1.27;;
50531;SDS011;36483;37.396;-122.212;2023-06-22T10:47:41;3.15;;;1.35;;
50531;SDS011;36483;37.396;-122.212;2023-06-22T10:50:08;2.42;;;1.40;;
50531;SDS011;36483;37.396;-122.212;2023-06-22T10:52:34;3.35;;;1.20;;
50531;SDS011;36483;37.396;-122.212;2023-06-22T10:55:00;1.95;;;1.08;;
50531;SDS011;36483;37.396;-122.212;2023-06-22T10:57:26;2.20;;;1.25;;
50531;SDS011;36483;37.396;-122.212;2023-06-22T10:59:52;2.03;;;1.15;;
50531;SDS011;36483;37.396;-122.212;2023-06-22T11:02:18;3.65;;;1.33;;
50531;SDS011;36483;37.396;-122.212;2023-06-22T11:04:45;3.28;;;1.60;;
50531;SDS011;36483;37.396;-122.212;2023-06-22T11:07:11;2.05;;;1.17;;
50531;SDS011;36483;37.396;-122.212;2023-06-22T11:09:37;3.83;;;1.33;;
50531;SDS011;36483;37.396;-122.212;2023-06-22T11:12:05;3.65;;;1.40;;
50531;SDS011;36483;37.396;-122.212;2023-06-22T11:14:31;2.58;;;1.20;;
50531;SDS011;36483;37.396;-122.212;2023-06-22T11:16:58;3.10;;;1.40;;
50531;SDS011;36483;37.396;-122.212;2023-06-22T11:19:25;3.67;;;1.50;;
50531;SDS011;36483;37.396;-122.212;2023-06-22T11:21:51;1.90;;;1.15;;
50531;SDS011;36483;37.396;-122.212;2023-06-22T11:24:17;3.13;;;1.38;;
50531;SDS011;36483;37.396;-122.212;2023-06-22T11:27:03;2.90;;;1.27;;
50531;SDS011;36483;37.396;-122.212;2023-06-22T11:29:29;2.60;;;1.42;;
50531;SDS011;36483;37.396;-122.212;2023-06-22T11:31:56;3.47;;;1.25;;
50531;SDS011;36483;37.396;-122.212;2023-06-22T11:34:22;1.83;;;1.30;;
50531;SDS011;36483;37.396;-122.212;2023-06-22T11:36:48;2.72;;;1.40;;
50531;SDS011;36483;37.396;-122.212;2023-06-22T11:39:14;3.53;;;1.50;;
50531;SDS011;36483;37.396;-122.212;2023-06-22T11:41:41;2.25;;;1.27;;
50531;SDS011;36483;37.396;-122.212;2023-06-22T11:44:09;4.72;;;1.40;;
50531;SDS011;36483;37.396;-122.212;2023-06-22T11:46:35;3.50;;;1.50;;
50531;SDS011;36483;37.396;-122.212;2023-06-22T11:49:01;5.10;;;1.40;;
50531;SDS011;36483;37.396;-122.212;2023-06-22T11:51:28;3.70;;;1.67;;
50531;SDS011;36483;37.396;-122.212;2023-06-22T11:53:56;4.90;;;1.55;;
50531;SDS011;36483;37.396;-122.212;2023-06-22T11:56:23;2.75;;;1.50;;
50531;SDS011;36483;37.396;-122.212;2023-06-22T11:58:49;3.55;;;1.88;;
50531;SDS011;36483;37.396;-122.212;2023-06-22T12:01:16;5.68;;;1.80;;
50531;SDS011;36483;37.396;-122.212;2023-06-22T12:03:42;4.25;;;1.60;;
50531;SDS011;36483;37.396;-122.212;2023-06-22T12:06:09;3.20;;;1.70;;
50531;SDS011;36483;37.396;-122.212;2023-06-22T12:08:35;3.60;;;1.52;;
50531;SDS011;36483;37.396;-122.212;2023-06-22T12:11:01;3.95;;;1.58;;
50531;SDS011;36483;37.396;-122.212;2023-06-22T12:13:27;3.53;;;1.75;;
50531;SDS011;36483;37.396;-122.212;2023-06-22T12:15:53;4.85;;;1.90;;
50531;SDS011;36483;37.396;-122.212;2023-06-22T12:18:20;2.80;;;1.60;;
50531;SDS011;36483;37.396;-122.212;2023-06-22T12:20:46;5.30;;;1.70;;
50531;SDS011;36483;37.396;-122.212;2023-06-22T12:23:13;5.57;;;2.10;;
50531;SDS011;36483;37.396;-122.212;2023-06-22T12:25:40;3.38;;;1.90;;
50531;SDS011;36483;37.396;-122.212;2023-06-22T12:28:06;4.63;;;1.85;;
50531;SDS011;36483;37.396;-122.212;2023-06-22T12:30:32;4.90;;;2.30;;
50531;SDS011;36483;37.396;-122.212;2023-06-22T12:32:59;5.35;;;1.70;;
50531;SDS011;36483;37.396;-122.212;2023-06-22T12:35:25;4.13;;;2.15;;
50531;SDS011;36483;37.396;-122.212;2023-06-22T12:37:51;5.32;;;2.28;;
50531;SDS011;36483;37.396;-122.212;2023-06-22T12:40:18;4.10;;;1.70;;
50531;SDS011;36483;37.396;-122.212;2023-06-22T12:42:44;6.90;;;2.28;;
50531;SDS011;36483;37.396;-122.212;2023-06-22T12:45:10;5.15;;;1.77;;
50531;SDS011;36483;37.396;-122.212;2023-06-22T12:47:37;4.55;;;1.90;;
50531;SDS011;36483;37.396;-122.212;2023-06-22T12:50:03;4.93;;;2.00;;
50531;SDS011;36483;37.396;-122.212;2023-06-22T12:52:30;5.65;;;2.00;;
50531;SDS011;36483;37.396;-122.212;2023-06-22T12:54:57;4.78;;;2.15;;
50531;SDS011;36483;37.396;-122.212;2023-06-22T12:57:23;4.57;;;2.08;;
50531;SDS011;36483;37.396;-122.212;2023-06-22T12:59:50;7.40;;;2.50;;
50531;SDS011;36483;37.396;-122.212;2023-06-22T13:02:16;7.03;;;2.20;;
50531;SDS011;36483;37.396;-122.212;2023-06-22T13:04:43;5.97;;;2.13;;
50531;SDS011;36483;37.396;-122.212;2023-06-22T13:07:09;5.65;;;2.45;;
50531;SDS011;36483;37.396;-122.212;2023-06-22T13:09:36;7.50;;;2.40;;
50531;SDS011;36483;37.396;-122.212;2023-06-22T13:12:02;8.07;;;2.40;;
50531;SDS011;36483;37.396;-122.212;2023-06-22T13:14:28;4.95;;;2.22;;
50531;SDS011;36483;37.396;-122.212;2023-06-22T13:16:54;4.55;;;2.28;;
50531;SDS011;36483;37.396;-122.212;2023-06-22T13:19:20;7.03;;;2.75;;
50531;SDS011;36483;37.396;-122.212;2023-06-22T13:21:47;6.38;;;2.35;;
50531;SDS011;36483;37.396;-122.212;2023-06-22T13:24:13;7.40;;;2.88;;
50531;SDS011;36483;37.396;-122.212;2023-06-22T13:26:39;6.13;;;2.38;;
50531;SDS011;36483;37.396;-122.212;2023-06-22T13:29:05;5.20;;;2.22;;
50531;SDS011;36483;37.396;-122.212;2023-06-22T13:31:31;6.82;;;2.60;;
50531;SDS011;36483;37.396;-122.212;2023-06-22T13:33:57;5.78;;;2.63;;
50531;SDS011;36483;37.396;-122.212;2023-06-22T13:36:23;5.82;;;2.33;;
50531;SDS011;36483;37.396;-122.212;2023-06-22T13:38:50;8.52;;;2.55;;
50531;SDS011;36483;37.396;-122.212;2023-06-22T13:41:16;8.27;;;2.60;;
50531;SDS011;36483;37.396;-122.212;2023-06-22T13:43:42;8.98;;;2.67;;
50531;SDS011;36483;37.396;-122.212;2023-06-22T13:46:08;7.80;;;2.55;;
50531;SDS011;36483;37.396;-122.212;2023-06-22T13:48:34;8.50;;;2.95;;
50531;SDS011;36483;37.396;-122.212;2023-06-22T13:51:00;6.65;;;2.60;;
50531;SDS011;36483;37.396;-122.212;2023-06-22T13:53:27;6.93;;;2.40;;
50531;SDS011;36483;37.396;-122.212;2023-06-22T13:55:53;6.55;;;2.53;;
50531;SDS011;36483;37.396;-122.212;2023-06-22T13:58:19;8.75;;;2.72;;
50531;SDS011;36483;37.396;-122.212;2023-06-22T14:00:45;6.63;;;2.30;;
50531;SDS011;36483;37.396;-122.212;2023-06-22T14:03:11;7.25;;;2.38;;
50531;SDS011;36483;37.396;-122.212;2023-06-22T14:05:41;7.30;;;2.50;;
50531;SDS011;36483;37.396;-122.212;2023-06-22T14:08:07;7.68;;;2.22;;
50531;SDS011;36483;37.396;-122.212;2023-06-22T14:10:34;5.20;;;2.10;;
50531;SDS011;36483;37.396;-122.212;2023-06-22T14:13:00;6.05;;;2.35;;